sensor_id;sensor_type;location;lat;lon;timestamp;P1;durP1;ratioP1;P2;durP2;ratioP2
4533;SDS011;2279;51.448;7.306;2023-02-28T00:01:21;4.90;;;4.45;;
4533;SDS011;2279;51.448;7.306;2023-02-28T00:03:47;5.55;;;4.05;;
4533;SDS011;2279;51.448;7.306;2023-02-28T00:06:13;4.87;;;4.37;;
4533;SDS011;2279;51.448;7.306;2023-02-28T00:08:39;8.03;;;4.70;;
4533;SDS011;2279;51.448;7.306;2023-02-28T00:11:06;6.67;;;4.27;;
4533;SDS011;2279;51.448;7.306;2023-02-28T00:13:36;8.15;;;5.00;;
4533;SDS011;2279;51.448;7.306;2023-02-28T00:16:04;5.88;;;4.43;;
4533;SDS011;2279;51.448;7.306;2023-02-28T00:18:30;5.22;;;4.47;;
4533;SDS011;2279;51.448;7.306;2023-02-28T00:20:57;6.85;;;4.88;;
4533;SDS011;2279;51.448;7.306;2023-02-28T00:23:23;8.82;;;6.35;;
4533;SDS011;2279;51.448;7.306;2023-02-28T00:25:49;9.27;;;5.75;;
4533;SDS011;2279;51.448;7.306;2023-02-28T00:28:15;6.22;;;5.63;;
4533;SDS011;2279;51.448;7.306;2023-02-28T00:30:41;8.27;;;4.93;;
4533;SDS011;2279;51.448;7.306;2023-02-28T00:33:07;4.87;;;4.47;;
4533;SDS011;2279;51.448;7.306;2023-02-28T00:35:33;6.50;;;5.43;;
4533;SDS011;2279;51.448;7.306;2023-02-28T00:37:59;7.50;;;5.27;;
4533;SDS011;2279;51.448;7.306;2023-02-28T00:40:25;5.35;;;4.85;;
4533;SDS011;2279;51.448;7.306;2023-02-28T00:42:51;9.97;;;6.00;;
4533;SDS011;2279;51.448;7.306;2023-02-28T00:45:17;7.40;;;5.57;;
4533;SDS011;2279;51.448;7.306;2023-02-28T00:47:43;5.40;;;4.90;;
4533;SDS011;2279;51.448;7.306;2023-02-28T00:50:11;9.85;;;5.05;;
4533;SDS011;2279;51.448;7.306;2023-02-28T00:52:37;6.05;;;5.10;;
4533;SDS011;2279;51.448;7.306;2023-02-28T00:55:04;4.00;;;3.70;;
4533;SDS011;2279;51.448;7.306;2023-02-28T00:57:30;10.60;;;4.45;;
4533;SDS011;2279;51.448;7.306;2023-02-28T00:59:56;6.20;;;4.82;;
4533;SDS011;2279;51.448;7.306;2023-02-28T01:02:22;7.50;;;4.82;;
4533;SDS011;2279;51.448;7.306;2023-02-28T01:04:48;7.05;;;4.63;;
4533;SDS011;2279;51.448;7.306;2023-02-28T01:07:14;5.30;;;4.80;;
4533;SDS011;2279;51.448;7.306;2023-02-28T01:09:41;7.63;;;4.00;;
4533;SDS011;2279;51.448;7.306;2023-02-28T01:12:07;5.20;;;4.70;;
4533;SDS011;2279;51.448;7.306;2023-02-28T01:14:33;7.25;;;4.47;;
4533;SDS011;2279;51.448;7.306;2023-02-28T01:17:00;7.10;;;4.45;;
4533;SDS011;2279;51.448;7.306;2023-02-28T01:19:26;4.57;;;4.18;;
4533;SDS011;2279;51.448;7.306;2023-02-28T01:21:52;7.50;;;4.60;;
4533;SDS011;2279;51.448;7.306;2023-02-28T01:24:18;5.17;;;4.67;;
4533;SDS011;2279;51.448;7.306;2023-02-28T01:26:44;5.32;;;4.68;;
4533;SDS011;2279;51.448;7.306;2023-02-28T01:29:10;6.00;;;4.30;;
4533;SDS011;2279;51.448;7.306;2023-02-28T01:31:36;5.38;;;4.25;;
4533;SDS011;2279;51.448;7.306;2023-02-28T01:34:02;6.18;;;4.60;;
4533;SDS011;2279;51.448;7.306;2023-02-28T01:36:28;6.43;;;5.80;;
4533;SDS011;2279;51.448;7.306;2023-02-28T01:38:55;7.47;;;6.15;;
4533;SDS011;2279;51.448;7.306;2023-02-28T01:41:32;15.95;;;5.80;;
4533;SDS011;2279;51.448;7.306;2023-02-28T01:46:30;6.93;;;4.85;;
4533;SDS011;2279;51.448;7.306;2023-02-28T01:49:08;7.20;;;4.38;;
4533;SDS011;2279;51.448;7.306;2023-02-28T01:51:40;5.00;;;4.25;;
4533;SDS011;2279;51.448;7.306;2023-02-28T01:54:11;5.03;;;4.53;;
4533;SDS011;2279;51.448;7.306;2023-02-28T01:56:38;5.28;;;4.10;;
4533;SDS011;2279;51.448;7.306;2023-02-28T01:59:06;4.90;;;4.30;;
4533;SDS011;2279;51.448;7.306;2023-02-28T02:01:32;5.03;;;4.37;;
4533;SDS011;2279;51.448;7.306;2023-02-28T02:03:59;5.40;;;4.33;;
4533;SDS011;2279;51.448;7.306;2023-02-28T02:06:30;5.38;;;3.65;;
4533;SDS011;2279;51.448;7.306;2023-02-28T02:08:59;5.65;;;4.10;;
4533;SDS011;2279;51.448;7.306;2023-02-28T02:11:25;7.07;;;5.40;;
4533;SDS011;2279;51.448;7.306;2023-02-28T02:14:08;4.45;;;4.05;;
4533;SDS011;2279;51.448;7.306;2023-02-28T02:16:52;6.60;;;3.85;;
4533;SDS011;2279;51.448;7.306;2023-02-28T02:35:31;7.82;;;5.00;;
4533;SDS011;2279;51.448;7.306;2023-02-28T02:38:13;5.00;;;4.32;;
4533;SDS011;2279;51.448;7.306;2023-02-28T02:40:43;6.40;;;4.78;;
4533;SDS011;2279;51.448;7.306;2023-02-28T02:48:09;4.70;;;4.30;;
4533;SDS011;2279;51.448;7.306;2023-02-28T02:50:37;5.25;;;4.00;;
4533;SDS011;2279;51.448;7.306;2023-02-28T02:53:04;5.70;;;4.85;;
4533;SDS011;2279;51.448;7.306;2023-02-28T02:55:31;4.57;;;3.92;;
4533;SDS011;2279;51.448;7.306;2023-02-28T02:58:01;5.63;;;5.13;;
4533;SDS011;2279;51.448;7.306;2023-02-28T03:00:39;4.70;;;4.30;;
4533;SDS011;2279;51.448;7.306;2023-02-28T03:03:07;5.10;;;4.70;;
4533;SDS011;2279;51.448;7.306;2023-02-28T03:05:35;5.35;;;4.13;;
4533;SDS011;2279;51.448;7.306;2023-02-28T03:08:05;5.78;;;4.43;;
4533;SDS011;2279;51.448;7.306;2023-02-28T03:10:36;6.85;;;4.68;;
4533;SDS011;2279;51.448;7.306;2023-02-28T03:13:07;6.32;;;4.40;;
4533;SDS011;2279;51.448;7.306;2023-02-28T03:15:50;5.10;;;4.60;;
4533;SDS011;2279;51.448;7.306;2023-02-28T03:18:22;6.68;;;5.20;;
4533;SDS011;2279;51.448;7.306;2023-02-28T03:23:32;5.20;;;4.70;;
4533;SDS011;2279;51.448;7.306;2023-02-28T03:26:02;4.45;;;3.95;;
4533;SDS011;2279;51.448;7.306;2023-02-28T03:28:31;4.93;;;4.25;;
4533;SDS011;2279;51.448;7.306;2023-02-28T03:31:03;6.65;;;4.72;;
4533;SDS011;2279;51.448;7.306;2023-02-28T03:33:38;7.78;;;4.20;;
4533;SDS011;2279;51.448;7.306;2023-02-28T03:36:13;6.40;;;4.68;;
4533;SDS011;2279;51.448;7.306;2023-02-28T03:38:45;5.38;;;4.47;;
4533;SDS011;2279;51.448;7.306;2023-02-28T03:41:16;5.35;;;4.85;;
4533;SDS011;2279;51.448;7.306;2023-02-28T03:43:44;4.65;;;4.22;;
4533;SDS011;2279;51.448;7.306;2023-02-28T03:46:12;12.68;;;5.22;;
4533;SDS011;2279;51.448;7.306;2023-02-28T03:48:45;5.20;;;4.70;;
4533;SDS011;2279;51.448;7.306;2023-02-28T03:51:16;5.03;;;4.38;;
4533;SDS011;2279;51.448;7.306;2023-02-28T03:53:44;6.88;;;4.88;;
4533;SDS011;2279;51.448;7.306;2023-02-28T03:56:59;5.03;;;4.53;;
4533;SDS011;2279;51.448;7.306;2023-02-28T03:59:02;9.43;;;7.72;;
4533;SDS011;2279;51.448;7.306;2023-02-28T04:03:56;6.10;;;5.10;;
4533;SDS011;2279;51.448;7.306;2023-02-28T04:06:22;7.93;;;5.67;;
4533;SDS011;2279;51.448;7.306;2023-02-28T04:08:48;10.20;;;5.43;;
4533;SDS011;2279;51.448;7.306;2023-02-28T04:13:43;5.32;;;4.28;;
4533;SDS011;2279;51.448;7.306;2023-02-28T04:16:09;4.93;;;4.53;;
4533;SDS011;2279;51.448;7.306;2023-02-28T04:18:37;4.82;;;4.38;;
4533;SDS011;2279;51.448;7.306;2023-02-28T04:21:04;8.27;;;4.80;;
4533;SDS011;2279;51.448;7.306;2023-02-28T04:23:30;5.50;;;4.45;;
4533;SDS011;2279;51.448;7.306;2023-02-28T04:25:56;8.38;;;4.20;;
4533;SDS011;2279;51.448;7.306;2023-02-28T04:28:22;4.50;;;4.10;;
4533;SDS011;2279;51.448;7.306;2023-02-28T04:30:53;4.90;;;4.50;;
4533;SDS011;2279;51.448;7.306;2023-02-28T04:33:19;4.18;;;3.75;;
4533;SDS011;2279;51.448;7.306;2023-02-28T04:35:45;6.50;;;4.97;;
4533;SDS011;2279;51.448;7.306;2023-02-28T04:38:11;4.33;;;3.93;;
4533;SDS011;2279;51.448;7.306;2023-02-28T04:40:37;6.47;;;4.30;;
4533;SDS011;2279;51.448;7.306;2023-02-28T04:43:03;4.73;;;4.33;;
4533;SDS011;2279;51.448;7.306;2023-02-28T04:45:30;5.63;;;5.13;;
4533;SDS011;2279;51.448;7.306;2023-02-28T04:47:57;4.45;;;4.05;;
4533;SDS011;2279;51.448;7.306;2023-02-28T04:50:23;7.88;;;4.22;;
4533;SDS011;2279;51.448;7.306;2023-02-28T04:52:49;4.80;;;4.40;;
4533;SDS011;2279;51.448;7.306;2023-02-28T04:55:15;6.03;;;4.77;;
4533;SDS011;2279;51.448;7.306;2023-02-28T04:57:41;4.07;;;3.63;;
4533;SDS011;2279;51.448;7.306;2023-02-28T05:00:08;6.40;;;4.75;;
4533;SDS011;2279;51.448;7.306;2023-02-28T05:02:36;4.55;;;4.15;;
4533;SDS011;2279;51.448;7.306;2023-02-28T05:05:02;4.90;;;4.00;;
4533;SDS011;2279;51.448;7.306;2023-02-28T05:07:28;11.63;;;5.05;;
4533;SDS011;2279;51.448;7.306;2023-02-28T05:09:54;5.30;;;4.30;;
4533;SDS011;2279;51.448;7.306;2023-02-28T05:12:20;6.23;;;5.73;;
4533;SDS011;2279;51.448;7.306;2023-02-28T05:14:46;5.63;;;4.80;;
4533;SDS011;2279;51.448;7.306;2023-02-28T05:17:12;5.57;;;4.67;;
4533;SDS011;2279;51.448;7.306;2023-02-28T05:19:38;7.17;;;4.60;;
4533;SDS011;2279;51.448;7.306;2023-02-28T05:22:04;4.53;;;4.13;;
4533;SDS011;2279;51.448;7.306;2023-02-28T05:24:30;5.80;;;4.60;;
4533;SDS011;2279;51.448;7.306;2023-02-28T05:26:56;4.57;;;4.13;;
4533;SDS011;2279;51.448;7.306;2023-02-28T05:29:22;6.85;;;4.57;;
4533;SDS011;2279;51.448;7.306;2023-02-28T05:31:48;5.97;;;5.30;;
4533;SDS011;2279;51.448;7.306;2023-02-28T05:34:14;5.38;;;4.85;;
4533;SDS011;2279;51.448;7.306;2023-02-28T05:36:40;4.85;;;4.50;;
4533;SDS011;2279;51.448;7.306;2023-02-28T05:39:06;8.90;;;4.65;;
4533;SDS011;2279;51.448;7.306;2023-02-28T05:41:37;5.18;;;4.55;;
4533;SDS011;2279;51.448;7.306;2023-02-28T05:44:03;5.10;;;4.25;;
4533;SDS011;2279;51.448;7.306;2023-02-28T05:46:29;5.50;;;3.72;;
4533;SDS011;2279;51.448;7.306;2023-02-28T05:48:55;5.57;;;5.00;;
4533;SDS011;2279;51.448;7.306;2023-02-28T05:51:22;4.75;;;4.30;;
4533;SDS011;2279;51.448;7.306;2023-02-28T05:53:48;5.77;;;4.70;;
4533;SDS011;2279;51.448;7.306;2023-02-28T05:56:14;5.88;;;5.05;;
4533;SDS011;2279;51.448;7.306;2023-02-28T05:58:40;6.20;;;5.60;;
4533;SDS011;2279;51.448;7.306;2023-02-28T06:03:51;5.97;;;4.95;;
4533;SDS011;2279;51.448;7.306;2023-02-28T06:06:17;5.93;;;4.73;;
4533;SDS011;2279;51.448;7.306;2023-02-28T06:08:43;5.60;;;5.07;;
4533;SDS011;2279;51.448;7.306;2023-02-28T06:11:09;8.30;;;4.30;;
4533;SDS011;2279;51.448;7.306;2023-02-28T06:13:36;6.10;;;5.47;;
4533;SDS011;2279;51.448;7.306;2023-02-28T06:16:01;5.13;;;4.57;;
4533;SDS011;2279;51.448;7.306;2023-02-28T06:18:27;6.83;;;5.80;;
4533;SDS011;2279;51.448;7.306;2023-02-28T06:20:54;6.15;;;4.78;;
4533;SDS011;2279;51.448;7.306;2023-02-28T06:23:20;7.88;;;4.70;;
4533;SDS011;2279;51.448;7.306;2023-02-28T06:25:46;5.57;;;5.15;;
4533;SDS011;2279;51.448;7.306;2023-02-28T06:28:14;5.80;;;5.03;;
4533;SDS011;2279;51.448;7.306;2023-02-28T06:30:40;5.37;;;4.07;;
4533;SDS011;2279;51.448;7.306;2023-02-28T06:33:06;5.70;;;5.03;;
4533;SDS011;2279;51.448;7.306;2023-02-28T06:35:32;5.60;;;5.10;;
4533;SDS011;2279;51.448;7.306;2023-02-28T06:37:58;6.97;;;5.27;;
4533;SDS011;2279;51.448;7.306;2023-02-28T06:40:24;8.00;;;5.70;;
4533;SDS011;2279;51.448;7.306;2023-02-28T06:42:49;5.23;;;4.60;;
4533;SDS011;2279;51.448;7.306;2023-02-28T06:45:15;6.00;;;4.80;;
4533;SDS011;2279;51.448;7.306;2023-02-28T06:47:41;5.95;;;5.45;;
4533;SDS011;2279;51.448;7.306;2023-02-28T06:50:09;10.30;;;7.63;;
4533;SDS011;2279;51.448;7.306;2023-02-28T06:52:35;9.25;;;7.45;;
4533;SDS011;2279;51.448;7.306;2023-02-28T06:55:03;6.25;;;5.65;;
4533;SDS011;2279;51.448;7.306;2023-02-28T06:57:29;4.85;;;4.45;;
4533;SDS011;2279;51.448;7.306;2023-02-28T06:59:56;4.55;;;4.15;;
4533;SDS011;2279;51.448;7.306;2023-02-28T07:02:22;5.63;;;4.95;;
4533;SDS011;2279;51.448;7.306;2023-02-28T07:04:48;3.60;;;3.30;;
4533;SDS011;2279;51.448;7.306;2023-02-28T07:07:14;6.00;;;4.13;;
4533;SDS011;2279;51.448;7.306;2023-02-28T07:09:40;5.63;;;4.30;;
4533;SDS011;2279;51.448;7.306;2023-02-28T07:12:06;4.60;;;4.20;;
4533;SDS011;2279;51.448;7.306;2023-02-28T07:14:32;4.70;;;4.30;;
4533;SDS011;2279;51.448;7.306;2023-02-28T07:16:58;4.10;;;3.73;;
4533;SDS011;2279;51.448;7.306;2023-02-28T07:19:24;3.67;;;3.40;;
4533;SDS011;2279;51.448;7.306;2023-02-28T07:21:50;3.97;;;3.65;;
4533;SDS011;2279;51.448;7.306;2023-02-28T07:24:16;5.43;;;4.27;;
4533;SDS011;2279;51.448;7.306;2023-02-28T07:26:42;4.65;;;4.25;;
4533;SDS011;2279;51.448;7.306;2023-02-28T07:29:08;5.00;;;3.80;;
4533;SDS011;2279;51.448;7.306;2023-02-28T07:31:34;4.63;;;4.23;;
4533;SDS011;2279;51.448;7.306;2023-02-28T07:34:00;7.65;;;3.85;;
4533;SDS011;2279;51.448;7.306;2023-02-28T07:36:27;3.58;;;3.28;;
4533;SDS011;2279;51.448;7.306;2023-02-28T07:38:53;3.93;;;3.60;;
4533;SDS011;2279;51.448;7.306;2023-02-28T07:41:20;4.40;;;3.38;;
4533;SDS011;2279;51.448;7.306;2023-02-28T07:43:46;4.55;;;3.60;;
4533;SDS011;2279;51.448;7.306;2023-02-28T07:46:14;6.90;;;4.20;;
4533;SDS011;2279;51.448;7.306;2023-02-28T07:48:41;4.75;;;3.88;;
4533;SDS011;2279;51.448;7.306;2023-02-28T07:51:07;5.20;;;3.95;;
4533;SDS011;2279;51.448;7.306;2023-02-28T07:53:33;4.77;;;3.30;;
4533;SDS011;2279;51.448;7.306;2023-02-28T07:56:00;7.20;;;3.88;;
4533;SDS011;2279;51.448;7.306;2023-02-28T07:58:26;3.88;;;3.58;;
4533;SDS011;2279;51.448;7.306;2023-02-28T08:00:53;6.85;;;3.50;;
4533;SDS011;2279;51.448;7.306;2023-02-28T08:03:19;4.30;;;3.90;;
4533;SDS011;2279;51.448;7.306;2023-02-28T08:05:45;5.35;;;4.05;;
4533;SDS011;2279;51.448;7.306;2023-02-28T08:08:12;4.07;;;3.65;;
4533;SDS011;2279;51.448;7.306;2023-02-28T08:10:38;6.40;;;3.75;;
4533;SDS011;2279;51.448;7.306;2023-02-28T08:13:04;8.47;;;4.03;;
4533;SDS011;2279;51.448;7.306;2023-02-28T08:15:30;5.60;;;3.80;;
4533;SDS011;2279;51.448;7.306;2023-02-28T08:17:56;3.87;;;3.47;;
4533;SDS011;2279;51.448;7.306;2023-02-28T08:20:23;8.10;;;3.80;;
4533;SDS011;2279;51.448;7.306;2023-02-28T08:22:49;4.53;;;4.10;;
4533;SDS011;2279;51.448;7.306;2023-02-28T08:25:15;5.87;;;3.67;;
4533;SDS011;2279;51.448;7.306;2023-02-28T08:27:41;3.60;;;3.23;;
4533;SDS011;2279;51.448;7.306;2023-02-28T08:30:07;7.05;;;4.35;;
4533;SDS011;2279;51.448;7.306;2023-02-28T08:32:33;5.20;;;3.67;;
4533;SDS011;2279;51.448;7.306;2023-02-28T08:34:59;5.23;;;3.63;;
4533;SDS011;2279;51.448;7.306;2023-02-28T08:37:25;9.00;;;7.93;;
4533;SDS011;2279;51.448;7.306;2023-02-28T08:39:51;5.15;;;3.97;;
4533;SDS011;2279;51.448;7.306;2023-02-28T08:42:17;4.20;;;3.77;;
4533;SDS011;2279;51.448;7.306;2023-02-28T08:44:43;7.20;;;4.43;;
4533;SDS011;2279;51.448;7.306;2023-02-28T08:47:09;4.23;;;3.40;;
4533;SDS011;2279;51.448;7.306;2023-02-28T08:49:36;4.00;;;3.13;;
4533;SDS011;2279;51.448;7.306;2023-02-28T08:52:02;5.53;;;4.13;;
4533;SDS011;2279;51.448;7.306;2023-02-28T08:54:28;3.50;;;3.20;;
4533;SDS011;2279;51.448;7.306;2023-02-28T08:56:56;4.50;;;3.30;;
4533;SDS011;2279;51.448;7.306;2023-02-28T08:59:22;5.87;;;4.40;;
4533;SDS011;2279;51.448;7.306;2023-02-28T09:01:48;4.53;;;3.33;;
4533;SDS011;2279;51.448;7.306;2023-02-28T09:04:14;3.27;;;3.00;;
4533;SDS011;2279;51.448;7.306;2023-02-28T09:06:40;3.67;;;2.97;;
4533;SDS011;2279;51.448;7.306;2023-02-28T09:09:06;3.37;;;3.07;;
4533;SDS011;2279;51.448;7.306;2023-02-28T09:11:32;3.33;;;2.80;;
4533;SDS011;2279;51.448;7.306;2023-02-28T09:13:59;2.90;;;2.70;;
4533;SDS011;2279;51.448;7.306;2023-02-28T09:16:25;4.23;;;3.27;;
4533;SDS011;2279;51.448;7.306;2023-02-28T09:18:51;4.50;;;3.57;;
4533;SDS011;2279;51.448;7.306;2023-02-28T09:21:18;4.50;;;3.23;;
4533;SDS011;2279;51.448;7.306;2023-02-28T09:23:44;7.73;;;2.77;;
4533;SDS011;2279;51.448;7.306;2023-02-28T09:26:14;5.40;;;2.60;;
4533;SDS011;2279;51.448;7.306;2023-02-28T09:28:41;2.73;;;2.53;;
4533;SDS011;2279;51.448;7.306;2023-02-28T09:31:10;3.40;;;3.07;;
4533;SDS011;2279;51.448;7.306;2023-02-28T09:33:37;2.77;;;2.57;;
4533;SDS011;2279;51.448;7.306;2023-02-28T09:36:03;3.00;;;2.70;;
4533;SDS011;2279;51.448;7.306;2023-02-28T09:38:29;2.90;;;2.70;;
4533;SDS011;2279;51.448;7.306;2023-02-28T09:40:56;3.17;;;2.90;;
4533;SDS011;2279;51.448;7.306;2023-02-28T09:43:24;3.50;;;2.90;;
4533;SDS011;2279;51.448;7.306;2023-02-28T09:46:14;7.63;;;3.10;;
4533;SDS011;2279;51.448;7.306;2023-02-28T09:48:39;2.70;;;2.60;;
4533;SDS011;2279;51.448;7.306;2023-02-28T09:53:52;2.57;;;2.37;;
4533;SDS011;2279;51.448;7.306;2023-02-28T09:56:26;3.40;;;2.43;;
4533;SDS011;2279;51.448;7.306;2023-02-28T10:01:22;3.00;;;2.63;;
4533;SDS011;2279;51.448;7.306;2023-02-28T10:03:54;2.10;;;1.87;;
4533;SDS011;2279;51.448;7.306;2023-02-28T10:06:23;2.20;;;2.00;;
4533;SDS011;2279;51.448;7.306;2023-02-28T10:11:38;2.30;;;2.10;;
4533;SDS011;2279;51.448;7.306;2023-02-28T10:16:35;3.90;;;3.07;;
4533;SDS011;2279;51.448;7.306;2023-02-28T10:19:03;3.00;;;2.53;;
4533;SDS011;2279;51.448;7.306;2023-02-28T10:21:45;2.80;;;2.60;;
4533;SDS011;2279;51.448;7.306;2023-02-28T10:26:42;2.80;;;2.23;;
4533;SDS011;2279;51.448;7.306;2023-02-28T10:29:10;2.37;;;2.17;;
4533;SDS011;2279;51.448;7.306;2023-02-28T10:31:36;2.40;;;2.20;;
4533;SDS011;2279;51.448;7.306;2023-02-28T10:34:03;4.43;;;2.20;;
4533;SDS011;2279;51.448;7.306;2023-02-28T10:36:31;2.50;;;2.30;;
4533;SDS011;2279;51.448;7.306;2023-02-28T10:38:57;2.07;;;1.83;;
4533;SDS011;2279;51.448;7.306;2023-02-28T10:41:29;2.73;;;1.87;;
4533;SDS011;2279;51.448;7.306;2023-02-28T10:44:12;2.20;;;2.10;;
4533;SDS011;2279;51.448;7.306;2023-02-28T10:46:39;2.70;;;2.40;;
4533;SDS011;2279;51.448;7.306;2023-02-28T10:49:06;2.10;;;1.97;;
4533;SDS011;2279;51.448;7.306;2023-02-28T10:51:37;3.57;;;2.30;;
4533;SDS011;2279;51.448;7.306;2023-02-28T10:54:04;4.60;;;2.20;;
4533;SDS011;2279;51.448;7.306;2023-02-28T10:56:30;2.37;;;2.17;;
4533;SDS011;2279;51.448;7.306;2023-02-28T11:04:01;3.10;;;2.73;;
4533;SDS011;2279;51.448;7.306;2023-02-28T11:06:31;2.63;;;2.43;;
4533;SDS011;2279;51.448;7.306;2023-02-28T11:09:15;2.43;;;2.23;;
4533;SDS011;2279;51.448;7.306;2023-02-28T11:11:44;2.20;;;2.10;;
4533;SDS011;2279;51.448;7.306;2023-02-28T11:14:19;2.13;;;1.93;;
4533;SDS011;2279;51.448;7.306;2023-02-28T11:16:46;2.30;;;2.10;;
4533;SDS011;2279;51.448;7.306;2023-02-28T11:19:25;2.67;;;2.47;;
4533;SDS011;2279;51.448;7.306;2023-02-28T11:21:54;2.30;;;2.10;;
4533;SDS011;2279;51.448;7.306;2023-02-28T11:24:25;2.20;;;1.97;;
4533;SDS011;2279;51.448;7.306;2023-02-28T11:26:52;2.40;;;2.30;;
4533;SDS011;2279;51.448;7.306;2023-02-28T11:29:20;2.53;;;2.33;;
4533;SDS011;2279;51.448;7.306;2023-02-28T11:34:46;4.30;;;2.50;;
4533;SDS011;2279;51.448;7.306;2023-02-28T11:37:13;2.57;;;2.37;;
4533;SDS011;2279;51.448;7.306;2023-02-28T11:39:40;2.63;;;2.23;;
4533;SDS011;2279;51.448;7.306;2023-02-28T11:45:02;3.30;;;2.43;;
4533;SDS011;2279;51.448;7.306;2023-02-28T12:03:02;3.47;;;2.60;;
4533;SDS011;2279;51.448;7.306;2023-02-28T12:05:43;2.60;;;2.40;;
4533;SDS011;2279;51.448;7.306;2023-02-28T12:11:06;2.67;;;2.50;;
4533;SDS011;2279;51.448;7.306;2023-02-28T12:13:48;2.60;;;2.40;;
4533;SDS011;2279;51.448;7.306;2023-02-28T12:21:48;3.47;;;3.17;;
4533;SDS011;2279;51.448;7.306;2023-02-28T12:27:05;2.93;;;2.63;;
4533;SDS011;2279;51.448;7.306;2023-02-28T12:29:52;2.80;;;2.60;;
4533;SDS011;2279;51.448;7.306;2023-02-28T12:32:36;2.93;;;2.50;;
4533;SDS011;2279;51.448;7.306;2023-02-28T12:35:04;2.87;;;2.60;;
4533;SDS011;2279;51.448;7.306;2023-02-28T12:37:37;3.90;;;2.70;;
4533;SDS011;2279;51.448;7.306;2023-02-28T12:40:06;3.20;;;2.50;;
4533;SDS011;2279;51.448;7.306;2023-02-28T12:42:37;3.73;;;2.40;;
4533;SDS011;2279;51.448;7.306;2023-02-28T12:45:08;2.63;;;2.43;;
4533;SDS011;2279;51.448;7.306;2023-02-28T12:47:36;3.83;;;2.90;;
4533;SDS011;2279;51.448;7.306;2023-02-28T12:50:04;3.33;;;2.50;;
4533;SDS011;2279;51.448;7.306;2023-02-28T12:52:35;2.80;;;2.60;;
4533;SDS011;2279;51.448;7.306;2023-02-28T12:59:59;2.67;;;2.50;;
4533;SDS011;2279;51.448;7.306;2023-02-28T13:05:10;4.20;;;3.10;;
4533;SDS011;2279;51.448;7.306;2023-02-28T13:10:15;2.90;;;2.70;;
4533;SDS011;2279;51.448;7.306;2023-02-28T13:12:50;2.77;;;2.57;;
4533;SDS011;2279;51.448;7.306;2023-02-28T13:15:21;3.27;;;2.97;;
4533;SDS011;2279;51.448;7.306;2023-02-28T13:17:50;3.10;;;2.90;;
4533;SDS011;2279;51.448;7.306;2023-02-28T13:20:18;2.80;;;2.60;;
4533;SDS011;2279;51.448;7.306;2023-02-28T13:22:46;2.97;;;2.53;;
4533;SDS011;2279;51.448;7.306;2023-02-28T13:27:47;2.73;;;2.53;;
4533;SDS011;2279;51.448;7.306;2023-02-28T13:35:50;3.33;;;2.80;;
4533;SDS011;2279;51.448;7.306;2023-02-28T13:38:32;3.30;;;2.97;;
4533;SDS011;2279;51.448;7.306;2023-02-28T13:46:29;3.53;;;3.23;;
4533;SDS011;2279;51.448;7.306;2023-02-28T13:48:55;4.10;;;3.40;;
4533;SDS011;2279;51.448;7.306;2023-02-28T13:51:41;3.83;;;3.40;;
4533;SDS011;2279;51.448;7.306;2023-02-28T13:59:45;4.70;;;3.20;;
4533;SDS011;2279;51.448;7.306;2023-02-28T14:07:26;3.30;;;3.10;;
4533;SDS011;2279;51.448;7.306;2023-02-28T14:10:01;3.47;;;3.07;;
4533;SDS011;2279;51.448;7.306;2023-02-28T14:17:54;3.40;;;3.20;;
4533;SDS011;2279;51.448;7.306;2023-02-28T14:20:21;3.20;;;2.90;;
4533;SDS011;2279;51.448;7.306;2023-02-28T14:23:01;5.40;;;4.03;;
4533;SDS011;2279;51.448;7.306;2023-02-28T14:25:37;3.40;;;3.10;;
4533;SDS011;2279;51.448;7.306;2023-02-28T14:38:13;3.77;;;3.50;;
4533;SDS011;2279;51.448;7.306;2023-02-28T14:40:40;3.93;;;3.63;;
4533;SDS011;2279;51.448;7.306;2023-02-28T14:43:16;3.90;;;3.47;;
4533;SDS011;2279;51.448;7.306;2023-02-28T14:45:44;4.30;;;3.87;;
4533;SDS011;2279;51.448;7.306;2023-02-28T14:48:14;4.30;;;3.47;;
4533;SDS011;2279;51.448;7.306;2023-02-28T14:50:41;5.70;;;3.40;;
4533;SDS011;2279;51.448;7.306;2023-02-28T14:53:15;3.70;;;3.50;;
4533;SDS011;2279;51.448;7.306;2023-02-28T14:55:44;4.53;;;3.53;;
4533;SDS011;2279;51.448;7.306;2023-02-28T14:58:21;3.30;;;3.10;;
4533;SDS011;2279;51.448;7.306;2023-02-28T15:00:48;4.23;;;3.30;;
4533;SDS011;2279;51.448;7.306;2023-02-28T15:03:22;3.30;;;3.10;;
4533;SDS011;2279;51.448;7.306;2023-02-28T15:05:56;4.13;;;3.70;;
4533;SDS011;2279;51.448;7.306;2023-02-28T15:08:22;3.87;;;3.67;;
4533;SDS011;2279;51.448;7.306;2023-02-28T15:10:58;4.20;;;3.90;;
4533;SDS011;2279;51.448;7.306;2023-02-28T15:13:42;4.13;;;3.83;;
4533;SDS011;2279;51.448;7.306;2023-02-28T15:16:32;4.30;;;3.90;;
4533;SDS011;2279;51.448;7.306;2023-02-28T15:19:00;3.90;;;3.60;;
4533;SDS011;2279;51.448;7.306;2023-02-28T15:21:31;4.20;;;3.80;;
4533;SDS011;2279;51.448;7.306;2023-02-28T15:26:27;11.90;;;9.77;;
4533;SDS011;2279;51.448;7.306;2023-02-28T15:29:05;5.93;;;4.47;;
4533;SDS011;2279;51.448;7.306;2023-02-28T15:31:35;6.00;;;3.93;;
4533;SDS011;2279;51.448;7.306;2023-02-28T15:34:06;4.07;;;3.77;;
4533;SDS011;2279;51.448;7.306;2023-02-28T15:36:33;3.80;;;3.50;;
4533;SDS011;2279;51.448;7.306;2023-02-28T15:39:02;4.50;;;3.80;;
4533;SDS011;2279;51.448;7.306;2023-02-28T15:41:29;3.33;;;3.13;;
4533;SDS011;2279;51.448;7.306;2023-02-28T15:46:45;4.80;;;3.50;;
4533;SDS011;2279;51.448;7.306;2023-02-28T15:49:19;4.70;;;3.73;;
4533;SDS011;2279;51.448;7.306;2023-02-28T15:51:47;6.33;;;3.83;;
4533;SDS011;2279;51.448;7.306;2023-02-28T15:54:15;4.40;;;3.93;;
4533;SDS011;2279;51.448;7.306;2023-02-28T15:56:46;3.87;;;3.57;;
4533;SDS011;2279;51.448;7.306;2023-02-28T15:59:17;4.60;;;4.00;;
4533;SDS011;2279;51.448;7.306;2023-02-28T16:01:43;6.13;;;4.80;;
4533;SDS011;2279;51.448;7.306;2023-02-28T16:04:17;4.53;;;4.13;;
4533;SDS011;2279;51.448;7.306;2023-02-28T16:06:44;5.63;;;5.03;;
4533;SDS011;2279;51.448;7.306;2023-02-28T16:09:14;27.50;;;11.80;;
4533;SDS011;2279;51.448;7.306;2023-02-28T16:11:42;5.90;;;5.30;;
4533;SDS011;2279;51.448;7.306;2023-02-28T16:14:11;8.57;;;5.73;;
4533;SDS011;2279;51.448;7.306;2023-02-28T16:16:41;6.97;;;5.60;;
4533;SDS011;2279;51.448;7.306;2023-02-28T16:19:08;6.80;;;5.20;;
4533;SDS011;2279;51.448;7.306;2023-02-28T16:21:34;8.43;;;5.87;;
4533;SDS011;2279;51.448;7.306;2023-02-28T16:23:59;5.73;;;4.83;;
4533;SDS011;2279;51.448;7.306;2023-02-28T16:26:25;4.87;;;4.37;;
4533;SDS011;2279;51.448;7.306;2023-02-28T16:28:53;5.20;;;3.80;;
4533;SDS011;2279;51.448;7.306;2023-02-28T16:31:19;5.57;;;4.63;;
4533;SDS011;2279;51.448;7.306;2023-02-28T16:33:45;5.23;;;4.13;;
4533;SDS011;2279;51.448;7.306;2023-02-28T16:36:15;4.70;;;4.40;;
4533;SDS011;2279;51.448;7.306;2023-02-28T16:38:41;5.60;;;4.60;;
4533;SDS011;2279;51.448;7.306;2023-02-28T16:41:07;4.63;;;3.43;;
4533;SDS011;2279;51.448;7.306;2023-02-28T16:43:41;7.05;;;4.50;;
4533;SDS011;2279;51.448;7.306;2023-02-28T16:46:09;5.85;;;4.45;;
4533;SDS011;2279;51.448;7.306;2023-02-28T16:48:35;5.22;;;4.15;;
4533;SDS011;2279;51.448;7.306;2023-02-28T16:51:02;6.18;;;3.70;;
4533;SDS011;2279;51.448;7.306;2023-02-28T16:53:29;4.80;;;4.40;;
4533;SDS011;2279;51.448;7.306;2023-02-28T16:55:55;4.00;;;3.70;;
4533;SDS011;2279;51.448;7.306;2023-02-28T16:58:21;5.00;;;4.50;;
4533;SDS011;2279;51.448;7.306;2023-02-28T17:00:50;3.45;;;3.15;;
4533;SDS011;2279;51.448;7.306;2023-02-28T17:05:46;4.03;;;3.50;;
4533;SDS011;2279;51.448;7.306;2023-02-28T17:08:12;4.57;;;3.90;;
4533;SDS011;2279;51.448;7.306;2023-02-28T17:10:38;10.43;;;3.93;;
4533;SDS011;2279;51.448;7.306;2023-02-28T17:13:04;4.13;;;3.77;;
4533;SDS011;2279;51.448;7.306;2023-02-28T17:15:32;6.70;;;4.05;;
4533;SDS011;2279;51.448;7.306;2023-02-28T17:17:58;5.45;;;4.22;;
4533;SDS011;2279;51.448;7.306;2023-02-28T17:20:24;4.33;;;3.93;;
4533;SDS011;2279;51.448;7.306;2023-02-28T17:22:51;5.30;;;4.07;;
4533;SDS011;2279;51.448;7.306;2023-02-28T17:25:18;4.22;;;3.65;;
4533;SDS011;2279;51.448;7.306;2023-02-28T17:27:44;5.05;;;4.00;;
4533;SDS011;2279;51.448;7.306;2023-02-28T17:30:14;4.50;;;3.80;;
4533;SDS011;2279;51.448;7.306;2023-02-28T17:32:41;4.60;;;4.20;;
4533;SDS011;2279;51.448;7.306;2023-02-28T17:35:07;4.20;;;3.80;;
4533;SDS011;2279;51.448;7.306;2023-02-28T17:37:33;4.13;;;3.55;;
4533;SDS011;2279;51.448;7.306;2023-02-28T17:39:59;4.70;;;3.83;;
4533;SDS011;2279;51.448;7.306;2023-02-28T17:42:25;3.50;;;3.30;;
4533;SDS011;2279;51.448;7.306;2023-02-28T17:44:51;3.93;;;3.53;;